LGKR/CFU METAR and TAF weather

Enter ICAO airport designator
Station Type Date Time Source
LGKR METAR 2018/12/18 18:50 UTC NOAA

LGKR 181850Z 27004KT 9999 FEW018 SCT030 08/06 Q1016 NOSIG


Station Type Date Time Source
LGKR Decoded METAR 2018/12/18 18:50 UTC NOAA

Kerkyra Airport , Greece (LGKR) 39-37N 019-55E 4M
Dec 18, 2018 - 01:50 PM EST / 2018.12.18 1850 UTC
Wind: from the W (270 degrees) at 5 MPH (4 KT):0
Visibility: greater than 7 mile(s):0
Sky conditions: partly cloudy
Temperature: 46 F (8 C)
Dew Point: 42 F (6 C)
Relative Humidity: 87%
Pressure (altimeter): 30.00 in. Hg (1016 hPa)
ob: LGKR 181850Z 27004KT 9999 FEW018 SCT030 08/06 Q1016 NOSIG
cycle: 19

Station Type Date Time Source
LGKR TAF 2018/12/18 18:16 UTC NOAA

TAF LGKR 181700Z 1818/1918 28012KT 9999 FEW018 SCT030 BKN080
BECMG 1818/1820 03012KT SCT018 BKN030 BKN080
BECMG 1907/1909 FEW018


Example: see airport list